Time,TemperatureF,DewpointF,PressureIn,WindDirection,WindDirectionDegrees,WindSpeedMPH,WindSpeedGustMPH,Humidity,HourlyPrecipIn,Conditions,Clouds,dailyrainin,SoftwareType,DateUTC
2013-07-18 00:00:00,77.2,69.1,30.19,WNW,295,0.0,8.0,76,0.00,,,0.00,VWS V14.01,2013-07-18 04:00:00,
2013-07-18 00:02:00,77.0,69.2,30.19,WNW,295,0.0,8.0,77,0.00,,,0.00,VWS V14.01,2013-07-18 04:02:00,
2013-07-18 00:07:00,77.0,69.2,30.19,WNW,295,0.0,8.0,77,0.00,,,0.00,VWS V14.01,2013-07-18 04:07:00,
2013-07-18 00:10:00,77.0,69.6,30.19,WNW,295,0.0,8.0,78,0.00,,,0.00,VWS V14.01,2013-07-18 04:10:00,
2013-07-18 00:12:00,76.8,69.4,30.19,WNW,295,0.0,8.0,78,0.00,,,0.00,VWS V14.01,2013-07-18 04:12:00,
2013-07-18 00:17:00,76.8,69.8,30.19,WNW,295,0.0,8.0,79,0.00,,,0.00,VWS V14.01,2013-07-18 04:17:00,
2013-07-18 00:20:00,76.7,69.7,30.19,WNW,295,0.0,8.0,79,0.00,,,0.00,VWS V14.01,2013-07-18 04:20:00,
2013-07-18 00:22:00,76.7,69.7,30.19,WNW,295,0.0,8.0,79,0.00,,,0.00,VWS V14.01,2013-07-18 04:22:00,
2013-07-18 00:27:00,76.5,69.5,30.19,WNW,295,0.0,8.0,79,0.00,,,0.00,VWS V14.01,2013-07-18 04:27:00,
2013-07-18 00:30:00,76.5,69.9,30.19,WNW,295,0.0,8.0,80,0.00,,,0.00,VWS V14.01,2013-07-18 04:30:00,
2013-07-18 00:32:00,76.3,69.7,30.19,WNW,295,0.0,8.0,80,0.00,,,0.00,VWS V14.01,2013-07-18 04:32:00,
2013-07-18 00:37:00,76.3,69.7,30.19,WNW,295,0.0,8.0,80,0.00,,,0.00,VWS V14.01,2013-07-18 04:37:00,
2013-07-18 00:40:00,76.3,69.7,30.19,WNW,295,0.0,8.0,80,0.00,,,0.00,VWS V14.01,2013-07-18 04:40:00,
2013-07-18 00:42:00,76.1,69.5,30.19,WNW,295,0.0,8.0,80,0.00,,,0.00,VWS V14.01,2013-07-18 04:42:00,
2013-07-18 00:47:00,76.0,69.4,30.18,WNW,295,0.0,8.0,80,0.00,,,0.00,VWS V14.01,2013-07-18 04:47:00,
2013-07-18 00:50:00,76.0,69.4,30.18,WNW,295,0.0,8.0,80,0.00,,,0.00,VWS V14.01,2013-07-18 04:50:00,
2013-07-18 00:52:00,76.0,69.4,30.18,WNW,295,0.0,8.0,80,0.00,,,0.00,VWS V14.01,2013-07-18 04:52:00,
2013-07-18 00:57:00,76.0,69.8,30.18,WNW,295,0.0,8.0,81,0.00,,,0.00,VWS V14.01,2013-07-18 04:57:00,
2013-07-18 01:00:00,75.8,69.6,30.17,WNW,295,0.0,8.0,81,0.00,,,0.00,VWS V14.01,2013-07-18 05:00:00,
2013-07-18 01:02:00,75.8,69.6,30.17,WNW,295,0.0,8.0,81,0.00,,,0.00,VWS V14.01,2013-07-18 05:02:00,
2013-07-18 01:07:00,75.6,69.7,30.17,WNW,295,0.0,8.0,82,0.00,,,0.00,VWS V14.01,2013-07-18 05:07:00,
2013-07-18 01:10:00,75.6,69.7,30.17,WNW,295,0.0,8.0,82,0.00,,,0.00,VWS V14.01,2013-07-18 05:10:00,
2013-07-18 01:12:00,75.6,69.7,30.17,WNW,295,0.0,8.0,82,0.00,,,0.00,VWS V14.01,2013-07-18 05:12:00,
2013-07-18 01:17:00,75.4,69.5,30.17,WNW,295,0.0,8.0,82,0.00,,,0.00,VWS V14.01,2013-07-18 05:17:00,
2013-07-18 01:20:00,75.3,69.4,30.17,WNW,295,0.0,8.0,82,0.00,,,0.00,VWS V14.01,2013-07-18 05:20:00,
2013-07-18 01:23:00,75.3,69.4,30.17,WNW,295,0.0,8.0,82,0.00,,,0.00,VWS V14.01,2013-07-18 05:23:00,
2013-07-18 01:28:00,75.3,69.4,30.17,WNW,295,0.0,8.0,82,0.00,,,0.00,VWS V14.01,2013-07-18 05:28:00,
2013-07-18 01:30:00,75.3,69.4,30.17,WNW,295,0.0,8.0,82,0.00,,,0.00,VWS V14.01,2013-07-18 05:30:00,
2013-07-18 01:33:00,75.3,69.4,30.17,WNW,295,0.0,8.0,82,0.00,,,0.00,VWS V14.01,2013-07-18 05:33:00,
2013-07-18 01:38:00,75.3,69.4,30.17,WNW,295,0.0,8.0,82,0.00,,,0.00,VWS V14.01,2013-07-18 05:38:00,
2013-07-18 01:40:00,75.3,69.4,30.17,WNW,295,0.0,8.0,82,0.00,,,0.00,VWS V14.01,2013-07-18 05:40:00,
2013-07-18 01:43:00,75.3,69.8,30.17,WNW,295,0.0,8.0,83,0.00,,,0.00,VWS V14.01,2013-07-18 05:43:00,
2013-07-18 01:48:00,75.1,69.6,30.16,WNW,295,0.0,8.0,83,0.00,,,0.00,VWS V14.01,2013-07-18 05:48:00,
2013-07-18 01:50:00,75.1,69.6,30.16,WNW,295,0.0,8.0,83,0.00,,,0.00,VWS V14.01,2013-07-18 05:50:00,
2013-07-18 01:53:00,75.1,69.6,30.16,WNW,295,0.0,8.0,83,0.00,,,0.00,VWS V14.01,2013-07-18 05:53:00,
2013-07-18 01:58:00,74.9,69.4,30.16,WNW,295,0.0,8.0,83,0.00,,,0.00,VWS V14.01,2013-07-18 05:58:00,
2013-07-18 02:00:00,74.9,69.4,30.16,WNW,295,0.0,8.0,83,0.00,,,0.00,VWS V14.01,2013-07-18 06:00:00,
2013-07-18 02:03:00,74.9,69.4,30.16,WNW,295,0.0,8.0,83,0.00,,,0.00,VWS V14.01,2013-07-18 06:03:00,
2013-07-18 02:08:00,74.7,69.6,30.16,WNW,295,0.0,8.0,84,0.00,,,0.00,VWS V14.01,2013-07-18 06:08:00,
2013-07-18 02:10:00,74.7,69.6,30.16,WNW,295,0.0,8.0,84,0.00,,,0.00,VWS V14.01,2013-07-18 06:10:00,
2013-07-18 02:13:00,74.7,69.6,30.16,WNW,295,0.0,8.0,84,0.00,,,0.00,VWS V14.01,2013-07-18 06:13:00,
2013-07-18 02:18:00,74.9,69.7,30.15,WNW,295,0.0,8.0,84,0.00,,,0.00,VWS V14.01,2013-07-18 06:18:00,
2013-07-18 02:20:00,74.9,69.7,30.15,WNW,295,0.0,8.0,84,0.00,,,0.00,VWS V14.01,2013-07-18 06:20:00,
2013-07-18 02:23:00,74.7,69.6,30.15,WNW,295,0.0,8.0,84,0.00,,,0.00,VWS V14.01,2013-07-18 06:23:00,
2013-07-18 02:28:00,74.6,69.8,30.15,WNW,295,0.0,8.0,85,0.00,,,0.00,VWS V14.01,2013-07-18 06:28:00,
2013-07-18 02:30:00,74.6,69.8,30.15,WNW,295,0.0,8.0,85,0.00,,,0.00,VWS V14.01,2013-07-18 06:30:00,
2013-07-18 02:33:00,74.4,69.6,30.15,WNW,295,0.0,8.0,85,0.00,,,0.00,VWS V14.01,2013-07-18 06:33:00,
2013-07-18 02:38:00,74.4,69.9,30.15,WNW,295,0.0,8.0,86,0.00,,,0.00,VWS V14.01,2013-07-18 06:38:00,
2013-07-18 02:40:00,74.4,69.9,30.15,WNW,295,0.0,8.0,86,0.00,,,0.00,VWS V14.01,2013-07-18 06:40:00,
2013-07-18 02:43:00,74.2,69.8,30.15,WNW,295,0.0,8.0,86,0.00,,,0.00,VWS V14.01,2013-07-18 06:43:00,
2013-07-18 02:48:00,74.2,69.8,30.15,WNW,295,0.0,8.0,86,0.00,,,0.00,VWS V14.01,2013-07-18 06:48:00,
2013-07-18 02:50:00,74.2,69.8,30.15,WNW,295,0.0,8.0,86,0.00,,,0.00,VWS V14.01,2013-07-18 06:50:00,
2013-07-18 02:53:00,74.2,69.8,30.15,WNW,295,0.0,8.0,86,0.00,,,0.00,VWS V14.01,2013-07-18 06:53:00,
2013-07-18 02:58:00,74.2,69.8,30.15,WNW,295,0.0,8.0,86,0.00,,,0.00,VWS V14.01,2013-07-18 06:58:00,
2013-07-18 03:00:00,74.2,69.8,30.16,WNW,295,0.0,8.0,86,0.00,,,0.00,VWS V14.01,2013-07-18 07:00:00,
2013-07-18 03:03:00,74.0,69.6,30.16,WNW,295,0.0,8.0,86,0.00,,,0.00,VWS V14.01,2013-07-18 07:03:00,
2013-07-18 03:08:00,74.0,69.6,30.16,WNW,295,0.0,8.0,86,0.00,,,0.00,VWS V14.01,2013-07-18 07:08:00,
2013-07-18 03:10:00,74.0,69.6,30.16,WNW,295,0.0,8.0,86,0.00,,,0.00,VWS V14.01,2013-07-18 07:10:00,
2013-07-18 03:13:00,74.0,69.6,30.16,WNW,295,0.0,8.0,86,0.00,,,0.00,VWS V14.01,2013-07-18 07:13:00,
2013-07-18 03:18:00,74.0,69.6,30.15,WNW,295,0.0,8.0,86,0.00,,,0.00,VWS V14.01,2013-07-18 07:18:00,
2013-07-18 03:20:00,74.0,69.6,30.15,WNW,295,0.0,8.0,86,0.00,,,0.00,VWS V14.01,2013-07-18 07:20:00,
2013-07-18 03:23:00,74.0,69.6,30.15,WNW,295,0.0,8.0,86,0.00,,,0.00,VWS V14.01,2013-07-18 07:23:00,
2013-07-18 03:29:00,74.0,69.6,30.15,WNW,295,0.0,8.0,86,0.00,,,0.00,VWS V14.01,2013-07-18 07:29:00,
2013-07-18 03:30:00,74.0,69.6,30.15,WNW,295,0.0,8.0,86,0.00,,,0.00,VWS V14.01,2013-07-18 07:30:00,
2013-07-18 03:33:00,74.0,69.9,30.15,WNW,295,0.0,8.0,87,0.00,,,0.00,VWS V14.01,2013-07-18 07:33:00,
2013-07-18 03:39:00,74.0,69.9,30.15,WNW,295,0.0,8.0,87,0.00,,,0.00,VWS V14.01,2013-07-18 07:39:00,
2013-07-18 03:40:00,74.0,69.9,30.15,WNW,295,0.0,8.0,87,0.00,,,0.00,VWS V14.01,2013-07-18 07:40:00,
2013-07-18 03:44:00,73.9,69.8,30.15,WNW,295,0.0,8.0,87,0.00,,,0.00,VWS V14.01,2013-07-18 07:44:00,
2013-07-18 03:49:00,73.9,69.8,30.16,WNW,295,0.0,8.0,87,0.00,,,0.00,VWS V14.01,2013-07-18 07:49:00,
2013-07-18 03:50:00,73.9,69.8,30.16,WNW,295,0.0,8.0,87,0.00,,,0.00,VWS V14.01,2013-07-18 07:50:00,
2013-07-18 03:54:00,73.9,69.8,30.16,WNW,295,0.0,8.0,87,0.00,,,0.00,VWS V14.01,2013-07-18 07:54:00,
2013-07-18 04:00:00,73.7,69.9,30.16,WNW,295,0.0,8.0,88,0.00,,,0.00,VWS V14.01,2013-07-18 08:00:00,
2013-07-18 04:14:00,73.5,69.7,30.16,WNW,295,0.0,8.0,88,0.00,,,0.00,VWS V14.01,2013-07-18 08:14:00,
2013-07-18 04:20:00,73.5,69.7,30.16,WNW,295,0.0,8.0,88,0.00,,,0.00,VWS V14.01,2013-07-18 08:20:00,
2013-07-18 04:29:00,73.5,69.7,30.16,WNW,295,0.0,8.0,88,0.00,,,0.00,VWS V14.01,2013-07-18 08:29:00,
2013-07-18 04:34:00,73.3,69.5,30.16,WNW,295,0.0,8.0,88,0.00,,,0.00,VWS V14.01,2013-07-18 08:34:00,
2013-07-18 04:39:00,73.3,69.5,30.16,WNW,295,0.0,8.0,88,0.00,,,0.00,VWS V14.01,2013-07-18 08:39:00,
2013-07-18 05:03:00,73.7,69.9,30.16,WNW,295,0.0,8.0,88,0.00,,,0.00,VWS V14.01,2013-07-18 09:03:00,
2013-07-18 05:04:00,73.3,69.5,30.17,WNW,295,0.0,8.0,88,0.00,,,0.00,VWS V14.01,2013-07-18 09:04:00,
2013-07-18 05:08:00,73.7,69.9,30.16,WNW,295,0.0,8.0,88,0.00,,,0.00,VWS V14.01,2013-07-18 09:08:00,
2013-07-18 05:09:00,73.3,69.5,30.17,WNW,295,0.0,8.0,88,0.00,,,0.00,VWS V14.01,2013-07-18 09:09:00,
2013-07-18 05:13:00,73.5,69.7,30.16,WNW,295,0.0,8.0,88,0.00,,,0.00,VWS V14.01,2013-07-18 09:13:00,
2013-07-18 05:23:00,73.5,69.7,30.16,WNW,295,0.0,8.0,88,0.00,,,0.00,VWS V14.01,2013-07-18 09:23:00,
2013-07-18 05:28:00,73.5,69.7,30.16,WNW,295,0.0,8.0,88,0.00,,,0.00,VWS V14.01,2013-07-18 09:28:00,
2013-07-18 05:34:00,73.5,69.7,30.16,WNW,295,0.0,8.0,88,0.00,,,0.00,VWS V14.01,2013-07-18 09:34:00,
2013-07-18 05:39:00,73.7,69.6,30.17,WNW,295,0.0,8.0,87,0.00,,,0.00,VWS V14.01,2013-07-18 09:39:00,
2013-07-18 05:40:00,73.7,69.6,30.17,WNW,295,0.0,8.0,87,0.00,,,0.00,VWS V14.01,2013-07-18 09:40:00,
2013-07-18 05:44:00,73.3,69.5,30.16,WNW,295,0.0,8.0,88,0.00,,,0.00,VWS V14.01,2013-07-18 09:44:00,
2013-07-18 05:53:00,73.3,69.5,30.17,WNW,295,0.0,8.0,88,0.00,,,0.00,VWS V14.01,2013-07-18 09:53:00,
2013-07-18 05:58:00,73.3,69.5,30.17,WNW,295,0.0,8.0,88,0.00,,,0.00,VWS V14.01,2013-07-18 09:58:00,
2013-07-18 06:03:00,73.3,69.5,30.17,WNW,295,0.0,8.0,88,0.00,,,0.00,VWS V14.01,2013-07-18 10:03:00,
2013-07-18 06:14:00,73.3,69.5,30.17,WNW,295,0.0,8.0,88,0.00,,,0.00,VWS V14.01,2013-07-18 10:14:00,
2013-07-18 06:23:00,73.5,69.4,30.17,WNW,295,0.0,8.0,87,0.00,,,0.00,VWS V14.01,2013-07-18 10:23:00,
2013-07-18 06:28:00,73.7,69.6,30.17,WNW,295,0.0,8.0,87,0.00,,,0.00,VWS V14.01,2013-07-18 10:28:00,
2013-07-18 06:33:00,73.7,69.6,30.17,WNW,295,0.0,8.0,87,0.00,,,0.00,VWS V14.01,2013-07-18 10:33:00,
2013-07-18 06:38:00,73.7,69.6,30.17,WNW,295,0.0,8.0,87,0.00,,,0.00,VWS V14.01,2013-07-18 10:38:00,
2013-07-18 06:48:00,73.7,69.6,30.17,WNW,295,0.0,8.0,87,0.00,,,0.00,VWS V14.01,2013-07-18 10:48:00,
2013-07-18 06:53:00,73.7,69.6,30.17,WNW,295,0.0,8.0,87,0.00,,,0.00,VWS V14.01,2013-07-18 10:53:00,
2013-07-18 06:58:00,73.5,69.4,30.17,WNW,295,0.0,8.0,87,0.00,,,0.00,VWS V14.01,2013-07-18 10:58:00,
2013-07-18 07:03:00,73.5,69.4,30.17,WNW,295,0.0,8.0,87,0.00,,,0.00,VWS V14.01,2013-07-18 11:03:00,
2013-07-18 07:08:00,73.5,69.7,30.17,WNW,295,0.0,8.0,88,0.00,,,0.00,VWS V14.01,2013-07-18 11:08:00,
2013-07-18 07:13:00,73.5,69.7,30.17,WNW,295,0.0,8.0,88,0.00,,,0.00,VWS V14.01,2013-07-18 11:13:00,
2013-07-18 07:18:00,73.7,69.6,30.17,WNW,295,0.0,8.0,87,0.00,,,0.00,VWS V14.01,2013-07-18 11:18:00,
2013-07-18 07:23:00,73.9,69.8,30.17,WNW,295,0.0,8.0,87,0.00,,,0.00,VWS V14.01,2013-07-18 11:23:00,
2013-07-18 07:28:00,74.0,69.9,30.17,WNW,295,0.0,8.0,87,0.00,,,0.00,VWS V14.01,2013-07-18 11:28:00,
2013-07-18 07:33:00,74.2,69.8,30.17,WNW,295,0.0,8.0,86,0.00,,,0.00,VWS V14.01,2013-07-18 11:33:00,
2013-07-18 07:38:00,74.4,69.9,30.17,WNW,295,0.0,8.0,86,0.00,,,0.00,VWS V14.01,2013-07-18 11:38:00,
2013-07-18 07:43:00,74.7,69.9,30.17,WNW,295,0.0,8.0,85,0.00,,,0.00,VWS V14.01,2013-07-18 11:43:00,
2013-07-18 07:48:00,74.9,70.1,30.16,WNW,295,0.0,8.0,85,0.00,,,0.00,VWS V14.01,2013-07-18 11:48:00,
2013-07-18 07:53:00,75.1,70.3,30.16,WNW,295,0.0,8.0,85,0.00,,,0.00,VWS V14.01,2013-07-18 11:53:00,
2013-07-18 07:59:00,75.3,70.1,30.16,WNW,295,0.0,8.0,84,0.00,,,0.00,VWS V14.01,2013-07-18 11:59:00,
2013-07-18 08:04:00,75.4,69.9,30.17,WNW,295,0.0,8.0,83,0.00,,,0.00,VWS V14.01,2013-07-18 12:04:00,
2013-07-18 08:09:00,75.6,70.1,30.17,WNW,295,0.0,8.0,83,0.00,,,0.00,VWS V14.01,2013-07-18 12:09:00,
2013-07-18 08:14:00,75.8,70.3,30.17,WNW,295,0.0,8.0,83,0.00,,,0.00,VWS V14.01,2013-07-18 12:14:00,
2013-07-18 08:19:00,76.0,70.5,30.17,WNW,295,0.0,8.0,83,0.00,,,0.00,VWS V14.01,2013-07-18 12:19:00,
2013-07-18 08:24:00,76.1,70.6,30.17,WNW,295,0.0,8.0,83,0.00,,,0.00,VWS V14.01,2013-07-18 12:24:00,
2013-07-18 08:29:00,76.3,70.8,30.17,WNW,295,0.0,8.0,83,0.00,,,0.00,VWS V14.01,2013-07-18 12:29:00,
2013-07-18 08:34:00,76.7,71.2,30.17,WNW,295,0.0,8.0,83,0.00,,,0.00,VWS V14.01,2013-07-18 12:34:00,
2013-07-18 08:39:00,77.2,70.9,30.17,WNW,295,0.0,8.0,81,0.00,,,0.00,VWS V14.01,2013-07-18 12:39:00,
2013-07-18 08:44:00,77.4,70.8,30.17,WNW,295,0.0,8.0,80,0.00,,,0.00,VWS V14.01,2013-07-18 12:44:00,
2013-07-18 08:49:00,77.7,71.0,30.18,WNW,295,0.0,8.0,80,0.00,,,0.00,VWS V14.01,2013-07-18 12:49:00,
2013-07-18 08:54:00,77.9,71.2,30.18,WNW,295,0.0,8.0,80,0.00,,,0.00,VWS V14.01,2013-07-18 12:54:00,
2013-07-18 08:59:00,78.1,71.4,30.18,WNW,295,0.0,8.0,80,0.00,,,0.00,VWS V14.01,2013-07-18 12:59:00,
2013-07-18 09:04:00,78.3,71.6,30.18,WNW,295,0.0,8.0,80,0.00,,,0.00,VWS V14.01,2013-07-18 13:04:00,
2013-07-18 09:09:00,78.3,71.6,30.18,WNW,295,0.0,8.0,80,0.00,,,0.00,VWS V14.01,2013-07-18 13:09:00,
2013-07-18 09:14:00,78.5,71.8,30.18,WNW,295,0.0,8.0,80,0.00,,,0.00,VWS V14.01,2013-07-18 13:14:00,
2013-07-18 09:19:00,78.6,71.9,30.19,WNW,295,0.0,8.0,80,0.00,,,0.00,VWS V14.01,2013-07-18 13:19:00,
2013-07-18 09:24:00,79.0,71.9,30.19,WNW,295,0.0,8.0,79,0.00,,,0.00,VWS V14.01,2013-07-18 13:24:00,
2013-07-18 09:29:00,79.4,71.9,30.19,WNW,295,0.0,8.0,78,0.00,,,0.00,VWS V14.01,2013-07-18 13:29:00,
2013-07-18 09:34:00,79.9,72.1,30.18,WNW,295,0.0,8.0,77,0.00,,,0.00,VWS V14.01,2013-07-18 13:34:00,
2013-07-18 09:39:00,80.7,71.7,30.18,WNW,295,0.0,8.0,74,0.00,,,0.00,VWS V14.01,2013-07-18 13:39:00,
2013-07-18 09:44:00,81.6,72.1,30.18,WNW,295,0.0,8.0,73,0.00,,,0.00,VWS V14.01,2013-07-18 13:44:00,
2013-07-18 09:49:00,82.4,72.1,30.17,WNW,295,0.0,8.0,71,0.00,,,0.00,VWS V14.01,2013-07-18 13:49:00,
2013-07-18 09:54:00,83.2,72.4,30.17,WNW,295,0.0,8.0,70,0.00,,,0.00,VWS V14.01,2013-07-18 13:54:00,
2013-07-18 09:59:00,84.1,72.4,30.17,WNW,295,0.0,8.0,68,0.00,,,0.00,VWS V14.01,2013-07-18 13:59:00,
2013-07-18 10:04:00,84.3,72.2,30.17,WNW,295,0.0,8.0,67,0.00,,,0.00,VWS V14.01,2013-07-18 14:04:00,
2013-07-18 10:09:00,84.7,72.5,30.17,WNW,295,0.0,8.0,67,0.00,,,0.00,VWS V14.01,2013-07-18 14:09:00,
2013-07-18 10:14:00,85.3,71.8,30.17,WNW,295,0.0,8.0,64,0.00,,,0.00,VWS V14.01,2013-07-18 14:14:00,
2013-07-18 10:19:00,84.9,71.4,30.17,WNW,295,0.0,8.0,64,0.00,,,0.00,VWS V14.01,2013-07-18 14:19:00,
2013-07-18 10:24:00,84.9,70.9,30.17,WNW,295,0.0,8.0,63,0.00,,,0.00,VWS V14.01,2013-07-18 14:24:00,
2013-07-18 10:29:00,85.5,72.4,30.17,WNW,295,0.0,8.0,65,0.00,,,0.00,VWS V14.01,2013-07-18 14:29:00,
2013-07-18 10:34:00,85.9,71.4,30.17,WNW,295,0.0,8.0,62,0.00,,,0.00,VWS V14.01,2013-07-18 14:34:00,
2013-07-18 10:39:00,86.3,72.2,30.17,WNW,295,0.0,8.0,63,0.00,,,0.00,VWS V14.01,2013-07-18 14:39:00,
2013-07-18 10:44:00,87.0,71.4,30.17,WNW,295,0.0,8.0,60,0.00,,,0.00,VWS V14.01,2013-07-18 14:44:00,
2013-07-18 10:49:00,86.7,71.2,30.17,WNW,295,0.0,8.0,60,0.00,,,0.00,VWS V14.01,2013-07-18 14:49:00,
2013-07-18 10:54:00,86.5,71.9,30.17,WNW,295,0.0,8.0,62,0.00,,,0.00,VWS V14.01,2013-07-18 14:54:00,
2013-07-18 10:59:00,87.2,72.1,30.17,WNW,295,0.0,8.0,61,0.00,,,0.00,VWS V14.01,2013-07-18 14:59:00,
2013-07-18 11:04:00,88.2,72.6,30.17,WNW,295,0.0,8.0,60,0.00,,,0.00,VWS V14.01,2013-07-18 15:04:00,
2013-07-18 11:09:00,89.0,72.8,30.17,WNW,295,0.0,8.0,59,0.00,,,0.00,VWS V14.01,2013-07-18 15:09:00,
2013-07-18 11:14:00,89.7,72.4,30.17,WNW,295,0.0,8.0,57,0.00,,,0.00,VWS V14.01,2013-07-18 15:14:00,
2013-07-18 11:19:00,90.1,73.3,30.17,WNW,295,0.0,8.0,58,0.00,,,0.00,VWS V14.01,2013-07-18 15:19:00,
2013-07-18 11:24:00,89.7,73.0,30.17,WNW,295,0.0,8.0,58,0.00,,,0.00,VWS V14.01,2013-07-18 15:24:00,
2013-07-18 11:29:00,89.3,73.1,30.17,WNW,295,0.0,8.0,59,0.00,,,0.00,VWS V14.01,2013-07-18 15:29:00,
2013-07-18 11:34:00,89.3,72.6,30.17,WNW,295,0.0,8.0,58,0.00,,,0.00,VWS V14.01,2013-07-18 15:34:00,
2013-07-18 11:39:00,89.5,72.3,30.17,WNW,295,0.0,8.0,57,0.00,,,0.00,VWS V14.01,2013-07-18 15:39:00,
2013-07-18 11:44:00,89.5,73.3,30.17,WNW,295,0.0,8.0,59,0.00,,,0.00,VWS V14.01,2013-07-18 15:44:00,
2013-07-18 11:49:00,88.8,73.1,30.16,WNW,295,0.0,8.0,60,0.00,,,0.00,VWS V14.01,2013-07-18 15:49:00,
2013-07-18 11:54:00,87.8,73.2,30.16,WNW,295,0.0,8.0,62,0.00,,,0.00,VWS V14.01,2013-07-18 15:54:00,
2013-07-18 11:59:00,86.7,72.6,30.16,WNW,295,0.0,8.0,63,0.00,,,0.00,VWS V14.01,2013-07-18 15:59:00,
2013-07-18 12:05:00,86.1,73.0,30.16,WNW,295,0.0,8.0,65,0.00,,,0.00,VWS V14.01,2013-07-18 16:05:00,
2013-07-18 12:10:00,85.9,73.7,30.16,WNW,295,0.0,8.0,67,0.00,,,0.00,VWS V14.01,2013-07-18 16:10:00,
2013-07-18 12:15:00,85.5,73.7,30.16,WNW,295,0.0,8.0,68,0.00,,,0.00,VWS V14.01,2013-07-18 16:15:00,
2013-07-18 12:20:00,85.1,73.4,30.16,SSW,200,1.0,8.0,68,0.00,,,0.00,VWS V14.01,2013-07-18 16:20:00,
2013-07-18 12:25:00,83.8,68.4,30.16,SW,220,2.0,8.0,60,0.00,,,0.00,VWS V14.01,2013-07-18 16:25:00,
2013-07-18 12:30:00,82.6,68.3,30.16,SSW,204,0.0,8.0,62,0.02,,,0.02,VWS V14.01,2013-07-18 16:30:00,
2013-07-18 12:35:00,79.4,72.7,30.16,South,186,0.0,8.0,80,0.11,,,0.11,VWS V14.01,2013-07-18 16:35:00,
2013-07-18 12:40:00,77.4,70.0,30.16,South,186,0.0,8.0,78,0.12,,,0.12,VWS V14.01,2013-07-18 16:40:00,
2013-07-18 12:45:00,76.0,69.4,30.16,South,186,0.0,8.0,80,0.17,,,0.17,VWS V14.01,2013-07-18 16:45:00,
2013-07-18 12:50:00,75.1,69.2,30.17,South,186,0.0,8.0,82,0.26,,,0.26,VWS V14.01,2013-07-18 16:50:00,
2013-07-18 12:55:00,74.7,70.2,30.17,South,186,0.0,8.0,86,0.31,,,0.31,VWS V14.01,2013-07-18 16:55:00,
2013-07-18 13:00:00,74.2,70.4,30.17,South,186,0.0,8.0,88,0.32,,,0.32,VWS V14.01,2013-07-18 17:00:00,
2013-07-18 13:05:00,74.4,70.9,30.16,South,186,0.0,8.0,89,0.33,,,0.33,VWS V14.01,2013-07-18 17:05:00,
2013-07-18 13:10:00,74.7,71.6,30.16,SE,138,0.0,8.0,90,0.33,,,0.33,VWS V14.01,2013-07-18 17:10:00,
2013-07-18 13:15:00,74.7,71.6,30.16,SE,138,0.0,8.0,90,0.33,,,0.33,VWS V14.01,2013-07-18 17:15:00,
2013-07-18 13:20:00,74.9,71.4,30.16,SE,138,0.0,8.0,89,0.33,,,0.33,VWS V14.01,2013-07-18 17:20:00,
2013-07-18 13:25:00,75.1,71.6,30.16,SE,138,0.0,8.0,89,0.33,,,0.33,VWS V14.01,2013-07-18 17:25:00,
2013-07-18 13:30:00,74.9,71.1,30.16,SE,138,0.0,8.0,88,0.33,,,0.33,VWS V14.01,2013-07-18 17:30:00,
2013-07-18 13:35:00,74.9,71.1,30.16,SE,138,0.0,8.0,88,0.22,,,0.33,VWS V14.01,2013-07-18 17:35:00,
2013-07-18 13:40:00,74.9,71.1,30.16,SE,138,0.0,8.0,88,0.22,,,0.33,VWS V14.01,2013-07-18 17:40:00,
2013-07-18 13:45:00,74.9,71.4,30.16,SE,138,0.0,8.0,89,0.17,,,0.33,VWS V14.01,2013-07-18 17:45:00,
2013-07-18 13:50:00,74.9,71.8,30.15,SE,138,0.0,8.0,90,0.17,,,0.33,VWS V14.01,2013-07-18 17:50:00,
2013-07-18 13:55:00,74.7,71.2,30.15,SE,138,0.0,8.0,89,0.03,,,0.33,VWS V14.01,2013-07-18 17:55:00,
2013-07-18 14:00:00,74.9,71.4,30.15,SE,138,0.0,8.0,89,0.03,,,0.33,VWS V14.01,2013-07-18 18:00:00,
2013-07-18 14:05:00,75.3,72.2,30.15,SE,138,0.0,8.0,90,0.00,,,0.33,VWS V14.01,2013-07-18 18:05:00,
2013-07-18 14:10:00,75.3,71.8,30.15,SE,138,0.0,8.0,89,0.00,,,0.33,VWS V14.01,2013-07-18 18:10:00,
2013-07-18 14:15:00,75.3,71.5,30.15,SE,138,0.0,8.0,88,0.00,,,0.33,VWS V14.01,2013-07-18 18:15:00,
2013-07-18 14:20:00,75.3,71.8,30.14,SE,138,0.0,8.0,89,0.00,,,0.33,VWS V14.01,2013-07-18 18:20:00,
2013-07-18 14:25:00,75.1,70.6,30.14,SSE,167,0.0,8.0,86,0.00,,,0.33,VWS V14.01,2013-07-18 18:25:00,
2013-07-18 14:30:00,74.9,69.7,30.14,SSE,167,0.0,8.0,84,0.00,,,0.33,VWS V14.01,2013-07-18 18:30:00,
2013-07-18 14:35:00,74.7,69.6,30.14,SSE,167,0.0,8.0,84,0.00,,,0.33,VWS V14.01,2013-07-18 18:35:00,
2013-07-18 14:40:00,74.7,69.6,30.14,SSE,167,0.0,8.0,84,0.00,,,0.33,VWS V14.01,2013-07-18 18:40:00,
2013-07-18 14:45:00,74.6,69.1,30.14,SSE,167,0.0,8.0,83,0.00,,,0.33,VWS V14.01,2013-07-18 18:45:00,
2013-07-18 14:50:00,74.6,69.4,30.12,SSE,167,0.0,8.0,84,0.00,,,0.33,VWS V14.01,2013-07-18 18:50:00,
2013-07-18 14:55:00,74.7,70.2,30.12,SSE,167,0.0,8.0,86,0.00,,,0.33,VWS V14.01,2013-07-18 18:55:00,
2013-07-18 15:00:00,74.7,70.2,30.12,SSE,167,0.0,8.0,86,0.00,,,0.33,VWS V14.01,2013-07-18 19:00:00,
2013-07-18 15:05:00,75.1,71.0,30.11,SSE,167,0.0,8.0,87,0.00,,,0.33,VWS V14.01,2013-07-18 19:05:00,
2013-07-18 15:10:00,75.3,71.5,30.11,SSE,167,0.0,8.0,88,0.00,,,0.33,VWS V14.01,2013-07-18 19:10:00,
2013-07-18 15:15:00,75.3,71.5,30.11,SSE,167,0.0,8.0,88,0.00,,,0.33,VWS V14.01,2013-07-18 19:15:00,
2013-07-18 15:20:00,75.4,71.6,30.11,SSE,167,0.0,8.0,88,0.00,,,0.33,VWS V14.01,2013-07-18 19:20:00,
2013-07-18 15:25:00,75.3,71.2,30.11,SSE,167,0.0,8.0,87,0.00,,,0.33,VWS V14.01,2013-07-18 19:25:00,
2013-07-18 15:30:00,75.8,72.0,30.11,SSE,167,0.0,8.0,88,0.00,,,0.33,VWS V14.01,2013-07-18 19:30:00,
2013-07-18 15:35:00,76.0,72.2,30.11,SSE,167,0.0,8.0,88,0.00,,,0.33,VWS V14.01,2013-07-18 19:35:00,
2013-07-18 15:40:00,76.3,72.5,30.11,SSE,167,0.0,8.0,88,0.00,,,0.33,VWS V14.01,2013-07-18 19:40:00,
2013-07-18 15:45:00,76.7,72.9,30.11,SSE,167,0.0,8.0,88,0.00,,,0.33,VWS V14.01,2013-07-18 19:45:00,
2013-07-18 15:50:00,77.0,72.8,30.10,SSE,167,0.0,8.0,87,0.00,,,0.33,VWS V14.01,2013-07-18 19:50:00,
2013-07-18 15:55:00,77.6,73.4,30.10,SSE,167,0.0,8.0,87,0.00,,,0.33,VWS V14.01,2013-07-18 19:55:00,
2013-07-18 16:00:00,78.1,73.6,30.10,SSE,167,0.0,8.0,86,0.00,,,0.33,VWS V14.01,2013-07-18 20:00:00,
2013-07-18 16:05:00,78.6,71.9,30.09,SSE,167,0.0,8.0,80,0.00,,,0.33,VWS V14.01,2013-07-18 20:05:00,
2013-07-18 16:10:00,79.6,73.3,30.09,SSE,167,0.0,8.0,81,0.00,,,0.33,VWS V14.01,2013-07-18 20:10:00,
2013-07-18 16:15:00,80.1,73.8,30.09,SSE,167,0.0,8.0,81,0.00,,,0.33,VWS V14.01,2013-07-18 20:15:00,
2013-07-18 16:20:00,80.7,73.6,30.09,SSE,167,0.0,8.0,79,0.00,,,0.33,VWS V14.01,2013-07-18 20:20:00,
2013-07-18 16:25:00,81.6,72.9,30.09,SSE,167,0.0,8.0,75,0.00,,,0.33,VWS V14.01,2013-07-18 20:25:00,
2013-07-18 16:30:00,82.2,73.5,30.09,SSE,167,0.0,8.0,75,0.00,,,0.33,VWS V14.01,2013-07-18 20:30:00,
2013-07-18 16:35:00,82.6,72.2,30.09,SSE,167,0.0,8.0,71,0.00,,,0.33,VWS V14.01,2013-07-18 20:35:00,
2013-07-18 16:40:00,83.2,73.2,30.09,SSE,167,0.0,8.0,72,0.00,,,0.33,VWS V14.01,2013-07-18 20:40:00,
2013-07-18 16:45:00,83.4,71.7,30.09,SSE,167,0.0,8.0,68,0.00,,,0.33,VWS V14.01,2013-07-18 20:45:00,
2013-07-18 16:50:00,83.6,71.9,30.08,SSE,167,0.0,8.0,68,0.00,,,0.33,VWS V14.01,2013-07-18 20:50:00,
2013-07-18 16:55:00,84.0,72.3,30.08,SSE,167,0.0,8.0,68,0.00,,,0.33,VWS V14.01,2013-07-18 20:55:00,
2013-07-18 17:00:00,84.3,70.8,30.08,SSE,167,0.0,8.0,64,0.00,,,0.33,VWS V14.01,2013-07-18 21:00:00,
2013-07-18 17:06:00,84.9,71.4,30.07,SSE,167,0.0,8.0,64,0.00,,,0.33,VWS V14.01,2013-07-18 21:06:00,
2013-07-18 17:11:00,85.3,73.1,30.07,SSE,167,0.0,8.0,67,0.00,,,0.33,VWS V14.01,2013-07-18 21:11:00,
2013-07-18 17:16:00,85.5,71.0,30.07,SSE,167,0.0,8.0,62,0.00,,,0.33,VWS V14.01,2013-07-18 21:16:00,
2013-07-18 17:21:00,85.7,70.7,30.07,SSE,167,0.0,8.0,61,0.00,,,0.33,VWS V14.01,2013-07-18 21:21:00,
2013-07-18 17:26:00,85.9,68.9,30.07,SSE,167,0.0,8.0,57,0.00,,,0.33,VWS V14.01,2013-07-18 21:26:00,
2013-07-18 17:31:00,86.1,70.1,30.07,SSE,167,0.0,8.0,59,0.00,,,0.33,VWS V14.01,2013-07-18 21:31:00,
2013-07-18 17:36:00,86.3,70.8,30.06,SSE,167,0.0,8.0,60,0.00,,,0.33,VWS V14.01,2013-07-18 21:36:00,
2013-07-18 17:41:00,87.0,70.9,30.06,SSE,167,0.0,8.0,59,0.00,,,0.33,VWS V14.01,2013-07-18 21:41:00,
2013-07-18 17:46:00,87.2,70.6,30.06,SSE,167,0.0,8.0,58,0.00,,,0.33,VWS V14.01,2013-07-18 21:46:00,
2013-07-18 17:51:00,87.2,70.6,30.05,SSE,168,0.0,8.0,58,0.00,,,0.33,VWS V14.01,2013-07-18 21:51:00,
2013-07-18 17:56:00,87.2,69.6,30.05,SSE,168,0.0,8.0,56,0.00,,,0.33,VWS V14.01,2013-07-18 21:56:00,
2013-07-18 18:01:00,87.2,68.5,30.05,South,175,0.0,8.0,54,0.00,,,0.33,VWS V14.01,2013-07-18 22:01:00,
2013-07-18 18:06:00,87.2,69.6,30.05,NNW,327,0.0,8.0,56,0.00,,,0.33,VWS V14.01,2013-07-18 22:06:00,
2013-07-18 18:11:00,87.2,69.6,30.05,NNW,327,0.0,8.0,56,0.00,,,0.33,VWS V14.01,2013-07-18 22:11:00,
2013-07-18 18:16:00,87.2,70.1,30.05,NNW,327,0.0,8.0,57,0.00,,,0.33,VWS V14.01,2013-07-18 22:16:00,
2013-07-18 18:21:00,87.2,69.1,30.06,NNW,327,0.0,8.0,55,0.00,,,0.33,VWS V14.01,2013-07-18 22:21:00,
2013-07-18 18:26:00,87.4,69.3,30.06,NNW,327,0.0,8.0,55,0.00,,,0.33,VWS V14.01,2013-07-18 22:26:00,
2013-07-18 18:31:00,87.6,70.0,30.06,NNW,327,0.0,8.0,56,0.00,,,0.33,VWS V14.01,2013-07-18 22:31:00,
2013-07-18 18:36:00,87.6,68.4,30.05,NNW,327,0.0,8.0,53,0.00,,,0.33,VWS V14.01,2013-07-18 22:36:00,
2013-07-18 18:41:00,87.4,69.8,30.05,NNW,327,0.0,8.0,56,0.00,,,0.33,VWS V14.01,2013-07-18 22:41:00,
2013-07-18 18:46:00,87.4,69.8,30.05,NNW,327,0.0,8.0,56,0.00,,,0.33,VWS V14.01,2013-07-18 22:46:00,
2013-07-18 18:51:00,87.4,69.8,30.05,NNW,327,0.0,8.0,56,0.00,,,0.33,VWS V14.01,2013-07-18 22:51:00,
2013-07-18 18:56:00,87.4,69.8,30.05,NNW,327,0.0,8.0,56,0.00,,,0.33,VWS V14.01,2013-07-18 22:56:00,
2013-07-18 19:01:00,87.4,69.3,30.05,NNW,327,0.0,8.0,55,0.00,,,0.33,VWS V14.01,2013-07-18 23:01:00,
2013-07-18 19:06:00,87.4,69.3,30.05,NNW,327,0.0,8.0,55,0.00,,,0.33,VWS V14.01,2013-07-18 23:06:00,
2013-07-18 19:11:00,87.4,69.3,30.05,NNW,327,0.0,8.0,55,0.00,,,0.33,VWS V14.01,2013-07-18 23:11:00,
2013-07-18 19:16:00,87.4,69.8,30.05,NNW,327,0.0,8.0,56,0.00,,,0.33,VWS V14.01,2013-07-18 23:16:00,
2013-07-18 19:21:00,87.2,69.6,30.04,NNW,327,1.0,8.0,56,0.00,,,0.33,VWS V14.01,2013-07-18 23:21:00,
2013-07-18 19:26:00,87.2,70.1,30.04,NNW,327,0.0,8.0,57,0.00,,,0.33,VWS V14.01,2013-07-18 23:26:00,
2013-07-18 19:31:00,87.0,70.4,30.04,NNW,327,0.0,8.0,58,0.00,,,0.33,VWS V14.01,2013-07-18 23:31:00,
2013-07-18 19:36:00,86.5,70.0,30.04,NNW,327,0.0,8.0,58,0.00,,,0.33,VWS V14.01,2013-07-18 23:36:00,
2013-07-18 19:41:00,86.3,70.3,30.04,NNW,327,0.0,8.0,59,0.00,,,0.33,VWS V14.01,2013-07-18 23:41:00,
2013-07-18 19:46:00,85.9,70.4,30.04,NNW,327,0.0,8.0,60,0.00,,,0.33,VWS V14.01,2013-07-18 23:46:00,
2013-07-18 19:51:00,85.7,70.7,30.05,NNW,327,0.0,8.0,61,0.00,,,0.33,VWS V14.01,2013-07-18 23:51:00,
2013-07-18 19:56:00,85.3,70.8,30.05,NNW,327,0.0,8.0,62,0.00,,,0.33,VWS V14.01,2013-07-18 23:56:00,
2013-07-18 20:01:00,85.1,71.1,30.05,NNW,327,0.0,8.0,63,0.00,,,0.33,VWS V14.01,2013-07-19 00:01:00,
2013-07-18 20:06:00,84.9,71.8,30.06,NNW,327,0.0,8.0,65,0.00,,,0.33,VWS V14.01,2013-07-19 00:06:00,
2013-07-18 20:11:00,84.7,72.1,30.06,NNW,327,0.0,8.0,66,0.00,,,0.33,VWS V14.01,2013-07-19 00:11:00,
2013-07-18 20:16:00,84.5,72.3,30.06,NNW,327,0.0,8.0,67,0.00,,,0.33,VWS V14.01,2013-07-19 00:16:00,
2013-07-18 20:21:00,84.1,72.0,30.06,NNW,327,0.0,8.0,67,0.00,,,0.33,VWS V14.01,2013-07-19 00:21:00,
2013-07-18 20:26:00,83.8,72.6,30.06,NNW,327,0.0,8.0,69,0.00,,,0.33,VWS V14.01,2013-07-19 00:26:00,
2013-07-18 20:31:00,83.4,71.7,30.06,NNW,327,0.0,8.0,68,0.00,,,0.33,VWS V14.01,2013-07-19 00:31:00,
2013-07-18 20:36:00,83.2,72.0,30.07,NNW,327,0.0,8.0,69,0.00,,,0.33,VWS V14.01,2013-07-19 00:36:00,
2013-07-18 20:41:00,83.0,71.8,30.07,NNW,327,0.0,8.0,69,0.00,,,0.33,VWS V14.01,2013-07-19 00:41:00,
2013-07-18 20:46:00,83.0,72.2,30.07,NNW,327,0.0,8.0,70,0.00,,,0.33,VWS V14.01,2013-07-19 00:46:00,
2013-07-18 20:51:00,82.8,71.6,30.05,NNW,327,0.0,8.0,69,0.00,,,0.33,VWS V14.01,2013-07-19 00:51:00,
2013-07-18 20:56:00,82.8,72.0,30.05,NNW,327,0.0,8.0,70,0.00,,,0.33,VWS V14.01,2013-07-19 00:56:00,
2013-07-18 21:01:00,82.6,71.8,30.05,NW,325,0.0,8.0,70,0.00,,,0.33,VWS V14.01,2013-07-19 01:01:00,
2013-07-18 21:06:00,82.4,70.8,30.06,NW,325,0.0,8.0,68,0.00,,,0.33,VWS V14.01,2013-07-19 01:06:00,
2013-07-18 21:11:00,82.0,70.4,30.06,NW,325,0.0,8.0,68,0.00,,,0.33,VWS V14.01,2013-07-19 01:11:00,
2013-07-18 21:16:00,81.8,70.2,30.06,NW,325,0.0,8.0,68,0.00,,,0.33,VWS V14.01,2013-07-19 01:16:00,
2013-07-18 21:21:00,81.4,69.8,30.06,NW,325,0.0,8.0,68,0.00,,,0.33,VWS V14.01,2013-07-19 01:21:00,
2013-07-18 21:26:00,81.2,69.6,30.06,NW,325,0.0,8.0,68,0.00,,,0.33,VWS V14.01,2013-07-19 01:26:00,
2013-07-18 21:31:00,81.1,69.6,30.06,NW,325,0.0,8.0,68,0.00,,,0.33,VWS V14.01,2013-07-19 01:31:00,
2013-07-18 21:36:00,80.9,69.4,30.06,NW,325,0.0,8.0,68,0.00,,,0.33,VWS V14.01,2013-07-19 01:36:00,
2013-07-18 21:41:00,80.7,68.7,30.06,NW,325,0.0,8.0,67,0.00,,,0.33,VWS V14.01,2013-07-19 01:41:00,
2013-07-18 21:46:00,80.5,68.1,30.06,NW,325,0.0,8.0,66,0.00,,,0.33,VWS V14.01,2013-07-19 01:46:00,
2013-07-18 21:51:00,80.3,67.9,30.07,NW,325,0.0,8.0,66,0.00,,,0.33,VWS V14.01,2013-07-19 01:51:00,
2013-07-18 21:56:00,80.1,68.2,30.07,NW,325,0.0,8.0,67,0.00,,,0.33,VWS V14.01,2013-07-19 01:56:00,
2013-07-18 22:01:00,79.8,67.0,30.07,NW,325,0.0,8.0,65,0.00,,,0.33,VWS V14.01,2013-07-19 02:01:00,
2013-07-18 22:06:00,79.6,66.8,30.07,NW,325,0.0,8.0,65,0.00,,,0.33,VWS V14.01,2013-07-19 02:06:00,
2013-07-18 22:11:00,79.4,66.2,30.07,NW,325,0.0,8.0,64,0.00,,,0.33,VWS V14.01,2013-07-19 02:11:00,
2013-07-18 22:16:00,79.2,65.5,30.07,NW,325,0.0,8.0,63,0.00,,,0.33,VWS V14.01,2013-07-19 02:16:00,
2013-07-18 22:21:00,79.0,65.3,30.08,NW,325,0.0,8.0,63,0.00,,,0.33,VWS V14.01,2013-07-19 02:21:00,
2013-07-18 22:26:00,78.8,65.2,30.08,NW,324,0.0,8.0,63,0.00,,,0.33,VWS V14.01,2013-07-19 02:26:00,
2013-07-18 22:31:00,78.6,65.0,30.08,NW,325,0.0,8.0,63,0.00,,,0.33,VWS V14.01,2013-07-19 02:31:00,
2013-07-18 22:36:00,78.5,64.9,30.07,NW,325,0.0,8.0,63,0.00,,,0.33,VWS V14.01,2013-07-19 02:36:00,
2013-07-18 22:41:00,78.3,64.7,30.07,NW,325,0.0,8.0,63,0.00,,,0.33,VWS V14.01,2013-07-19 02:41:00,
2013-07-18 22:47:00,78.3,65.1,30.07,NW,325,0.0,8.0,64,0.00,,,0.33,VWS V14.01,2013-07-19 02:47:00,
2013-07-18 22:52:00,78.1,65.4,30.08,NW,325,0.0,8.0,65,0.00,,,0.33,VWS V14.01,2013-07-19 02:52:00,
2013-07-18 22:57:00,77.9,65.2,30.08,NW,325,0.0,8.0,65,0.00,,,0.33,VWS V14.01,2013-07-19 02:57:00,
2013-07-18 22:58:00,76.0,66.7,30.08,NW,325,0.0,8.0,73,0.00,,,0.33,VWS V14.01,2013-07-19 02:58:00,
2013-07-18 23:00:00,75.8,66.5,30.07,NW,325,0.0,8.0,73,0.00,,,0.33,VWS V14.01,2013-07-19 03:00:00,
2013-07-18 23:02:00,77.7,65.4,30.08,NW,324,0.0,8.0,66,0.00,,,0.33,VWS V14.01,2013-07-19 03:02:00,
2013-07-18 23:03:00,75.8,66.9,30.07,NW,325,0.0,8.0,74,0.00,,,0.00,VWS V14.01,2013-07-19 03:03:00,
2013-07-18 23:07:00,77.6,65.8,30.08,NW,325,0.0,8.0,67,0.00,,,0.33,VWS V14.01,2013-07-19 03:07:00,
2013-07-18 23:08:00,75.6,66.7,30.07,NW,325,0.0,8.0,74,0.00,,,0.00,VWS V14.01,2013-07-19 03:08:00,
2013-07-18 23:10:00,75.4,66.5,30.07,NW,325,0.0,8.0,74,0.00,,,0.00,VWS V14.01,2013-07-19 03:10:00,
2013-07-18 23:12:00,77.4,66.0,30.08,NW,325,0.0,8.0,68,0.00,,,0.33,VWS V14.01,2013-07-19 03:12:00,
2013-07-18 23:13:00,75.3,66.4,30.07,NW,325,0.0,8.0,74,0.00,,,0.00,VWS V14.01,2013-07-19 03:13:00,
2013-07-18 23:17:00,77.2,65.8,30.08,NW,325,0.0,8.0,68,0.00,,,0.33,VWS V14.01,2013-07-19 03:17:00,
2013-07-18 23:18:00,75.3,66.8,30.07,NW,325,0.0,8.0,75,0.00,,,0.00,VWS V14.01,2013-07-19 03:18:00,
2013-07-18 23:20:00,75.3,66.8,30.07,NW,324,0.0,8.0,75,0.00,,,0.00,VWS V14.01,2013-07-19 03:20:00,
2013-07-18 23:22:00,77.0,66.1,30.08,NW,325,0.0,8.0,69,0.00,,,0.33,VWS V14.01,2013-07-19 03:22:00,
2013-07-18 23:23:00,75.1,66.6,30.07,NW,325,0.0,8.0,75,0.00,,,0.00,VWS V14.01,2013-07-19 03:23:00,
2013-07-18 23:27:00,77.0,66.9,30.08,NW,325,0.0,8.0,71,0.00,,,0.33,VWS V14.01,2013-07-19 03:27:00,
2013-07-18 23:28:00,74.9,66.1,30.07,NW,325,0.0,8.0,74,0.00,,,0.00,VWS V14.01,2013-07-19 03:28:00,
2013-07-18 23:30:00,74.9,66.1,30.07,NW,325,0.0,8.0,74,0.00,,,0.00,VWS V14.01,2013-07-19 03:30:00,
2013-07-18 23:32:00,76.5,66.8,30.08,NW,325,0.0,8.0,72,0.00,,,0.33,VWS V14.01,2013-07-19 03:32:00,
2013-07-18 23:33:00,74.9,66.1,30.07,NW,325,0.0,8.0,74,0.00,,,0.00,VWS V14.01,2013-07-19 03:33:00,
2013-07-18 23:37:00,76.3,66.6,30.08,NW,325,0.0,8.0,72,0.00,,,0.33,VWS V14.01,2013-07-19 03:37:00,
2013-07-18 23:38:00,74.7,65.9,30.07,NW,324,0.0,8.0,74,0.00,,,0.00,VWS V14.01,2013-07-19 03:38:00,
2013-07-18 23:40:00,74.7,65.9,30.07,NW,325,0.0,8.0,74,0.00,,,0.00,VWS V14.01,2013-07-19 03:40:00,
2013-07-18 23:42:00,76.3,66.6,30.08,NW,325,0.0,8.0,72,0.00,,,0.33,VWS V14.01,2013-07-19 03:42:00,
2013-07-18 23:43:00,74.7,65.9,30.07,NW,325,0.0,8.0,74,0.00,,,0.00,VWS V14.01,2013-07-19 03:43:00,
2013-07-18 23:47:00,76.1,66.4,30.08,NW,325,0.0,8.0,72,0.00,,,0.33,VWS V14.01,2013-07-19 03:47:00,
2013-07-18 23:48:00,74.6,66.5,30.06,NW,325,0.0,8.0,76,0.00,,,0.00,VWS V14.01,2013-07-19 03:48:00,
2013-07-18 23:50:00,74.6,66.2,30.06,NW,325,0.0,8.0,75,0.00,,,0.00,VWS V14.01,2013-07-19 03:50:00,
2013-07-18 23:52:00,76.1,66.8,30.08,NW,325,0.0,8.0,73,0.00,,,0.33,VWS V14.01,2013-07-19 03:52:00,
2013-07-18 23:53:00,74.4,66.3,30.06,NW,325,0.0,8.0,76,0.00,,,0.00,VWS V14.01,2013-07-19 03:53:00,
2013-07-18 23:57:00,76.0,66.7,30.08,NW,325,0.0,8.0,73,0.00,,,0.33,VWS V14.01,2013-07-19 03:57:00,
2013-07-18 23:58:00,74.4,66.3,30.06,NW,325,0.0,8.0,76,0.00,,,0.00,VWS V14.01,2013-07-19 03:58:00,